TimeMDT,TemperatureF,Dew PointF,Humidity,Sea Level PressureIn,VisibilityMPH,Wind Direction,Wind SpeedMPH,Gust SpeedMPH,PrecipitationIn,Events,Conditions,WindDirDegrees,DateUTC
12:53 AM,39.9,21.9,49,29.96,-9999.0,North,9.2,-,N/A,,Clear,10,2013-04-22 06:53:00
1:53 AM,39.9,21.9,49,29.96,-9999.0,NNE,3.5,-,N/A,,Clear,30,2013-04-22 07:53:00
2:53 AM,39.0,21.9,50,29.95,-9999.0,NE,3.5,-,N/A,,Clear,40,2013-04-22 08:53:00
3:53 AM,43.0,21.9,43,29.92,-9999.0,NNW,9.2,-,N/A,,Clear,330,2013-04-22 09:53:00
4:53 AM,37.9,23.0,55,29.93,-9999.0,North,8.1,-,N/A,,Clear,350,2013-04-22 10:53:00
5:53 AM,37.0,23.0,57,29.93,-9999.0,North,5.8,-,N/A,,Clear,360,2013-04-22 11:53:00
6:53 AM,39.0,23.0,53,29.93,-9999.0,Calm,Calm,-,N/A,,Clear,0,2013-04-22 12:53:00
7:53 AM,43.0,26.1,51,29.93,-9999.0,SE,5.8,-,N/A,,Clear,140,2013-04-22 13:53:00
8:53 AM,52.0,25.0,35,29.92,-9999.0,Variable,4.6,-,N/A,,Clear,0,2013-04-22 14:53:00
9:53 AM,55.9,21.0,26,29.91,-9999.0,WNW,9.2,21.9,N/A,,Clear,300,2013-04-22 15:53:00
10:53 AM,57.9,19.9,23,29.92,-9999.0,WNW,15.0,25.3,N/A,,Clear,290,2013-04-22 16:53:00
11:53 AM,59.0,19.0,21,29.91,-9999.0,West,17.3,28.8,N/A,,Mostly Cloudy,270,2013-04-22 17:53:00
12:53 PM,57.9,16.0,19,29.90,-9999.0,WNW,18.4,28.8,N/A,,Partly Cloudy,290,2013-04-22 18:53:00
1:53 PM,60.1,18.0,20,29.88,10.0,West,21.9,41.4,N/A,,Partly Cloudy,270,2013-04-22 19:53:00
2:53 PM,60.1,15.1,17,29.87,10.0,West,19.6,40.3,N/A,,Scattered Clouds,260,2013-04-22 20:53:00
3:53 PM,59.0,18.0,20,29.87,10.0,West,23.0,38.0,N/A,,Scattered Clouds,270,2013-04-22 21:53:00
4:53 PM,60.1,19.0,20,29.86,10.0,NW,18.4,33.4,N/A,,Clear,310,2013-04-22 22:53:00
5:53 PM,55.0,21.9,28,29.90,10.0,NW,18.4,27.6,N/A,,Clear,310,2013-04-22 23:53:00
6:53 PM,52.0,19.0,27,29.92,10.0,NW,12.7,24.2,N/A,,Clear,320,2013-04-23 00:53:00
7:53 PM,48.0,17.1,29,29.92,10.0,NW,16.1,33.4,N/A,,Clear,320,2013-04-23 01:53:00
8:53 PM,45.0,16.0,31,29.92,10.0,NW,17.3,27.6,N/A,,Clear,310,2013-04-23 02:53:00
9:53 PM,44.1,9.0,24,29.93,10.0,NW,15.0,27.6,N/A,,Clear,320,2013-04-23 03:53:00
10:53 PM,43.0,9.0,25,29.95,10.0,NNW,8.1,-,N/A,,Clear,340,2013-04-23 04:53:00
11:53 PM,39.9,8.1,27,29.97,10.0,North,5.8,-,N/A,,Scattered Clouds,360,2013-04-23 05:53:00